Time;durP1;ratioP1;P1;durP2;ratioP2;P2;SDS_P1;SDS_P2;PMS_P1;PMS_P2;Temp;Humidity;BMP_temperature;BMP_pressure;BME280_temperature;BME280_humidity;BME280_pressure;Samples;Min_cycle;Max_cycle;Signal;HPM_P1;HPM_P2
2020/12/30 11:21:21;;;;;;;7.77;5.30;;;;;;;;;;5067268;27;20633;-70
2020/12/30 11:23:48;;;;;;;8.50;4.57;;;;;;;;;;5066470;28;20567;-69
2020/12/30 11:26:14;;;;;;;6.60;4.20;;;;;;;;;;5069280;28;20849;-71
2020/12/30 11:28:41;;;;;;;5.37;4.20;;;;;;;;;;5053909;28;20450;-70
2020/12/30 11:31:08;;;;;;;5.63;4.17;;;;;;;;;;5064900;28;20449;-71
2020/12/30 11:33:34;;;;;;;3.93;3.50;;;;;;;;;;5063719;28;20458;-71
2020/12/30 11:36:01;;;;;;;3.07;2.77;;;;;;;;;;5066507;28;21069;-71
2020/12/30 11:38:28;;;;;;;3.90;2.83;;;;;;;;;;5065403;28;20457;-70
2020/12/30 11:40:55;;;;;;;3.83;3.43;;;;;;;;;;5064721;28;20482;-69
2020/12/30 11:43:22;;;;;;;3.87;3.20;;;;;;;;;;5067149;28;20885;-71
2020/12/30 11:45:48;;;;;;;8.93;4.00;;;;;;;;;;5062030;28;20481;-69
2020/12/30 11:48:15;;;;;;;4.30;3.90;;;;;;;;;;5065503;28;20843;-71
2020/12/30 11:50:41;;;;;;;5.33;3.67;;;;;;;;;;5063175;28;20453;-70
2020/12/30 11:53:08;;;;;;;3.37;3.07;;;;;;;;;;5065839;28;20476;-71
2020/12/30 11:58:02;;;;;;;4.37;3.23;;;;;;;;;;5120047;27;20527;-68
2020/12/30 12:00:28;;;;;;;5.70;3.30;;;;;;;;;;5104956;28;20482;-68
2020/12/30 12:04:51;;;;;;;4.37;2.83;;;;;;;;;;5097404;27;20598;-70
2020/12/30 12:07:18;;;;;;;5.07;3.43;;;;;;;;;;5081795;28;20782;-71
2020/12/30 12:11:56;;;;;;;6.93;3.03;;;;;;;;;;5098444;27;20593;-71
2020/12/30 12:14:23;;;;;;;4.20;3.33;;;;;;;;;;5084289;28;20525;-71
2020/12/30 12:16:50;;;;;;;4.80;2.77;;;;;;;;;;5084272;28;20483;-71
2020/12/30 12:19:17;;;;;;;5.13;2.97;;;;;;;;;;5075301;28;20509;-71
2020/12/30 12:21:44;;;;;;;3.40;2.17;;;;;;;;;;5081390;28;20456;-70
2020/12/30 12:24:11;;;;;;;3.80;2.60;;;;;;;;;;5084759;28;20441;-71
2020/12/30 12:26:40;;;;;;;6.00;2.50;;;;;;;;;;5077363;28;21185;-71
2020/12/30 12:29:59;;;;;;;4.20;2.77;;;;;;;;;;5115764;27;21102;-72
2020/12/30 12:32:26;;;;;;;4.23;2.40;;;;;;;;;;5115836;27;20447;-72
2020/12/30 12:34:54;;;;;;;6.13;3.27;;;;;;;;;;5115288;28;20466;-71
2020/12/30 12:37:21;;;;;;;3.47;2.77;;;;;;;;;;5112201;28;20486;-69
2020/12/30 12:39:49;;;;;;;2.97;2.67;;;;;;;;;;5109788;27;20443;-69
2020/12/30 12:42:16;;;;;;;5.30;3.00;;;;;;;;;;5107484;27;20462;-71
2020/12/30 12:44:46;;;;;;;3.47;2.50;;;;;;;;;;5101185;28;20458;-72
2020/12/30 12:47:14;;;;;;;7.93;2.90;;;;;;;;;;5098734;27;21006;-71
2020/12/30 12:49:41;;;;;;;3.83;2.60;;;;;;;;;;5108336;28;20486;-70
2020/12/30 12:52:08;;;;;;;3.27;2.80;;;;;;;;;;5109087;28;20440;-71
2020/12/30 12:54:35;;;;;;;5.73;3.03;;;;;;;;;;5112225;28;20469;-70
2020/12/30 12:57:02;;;;;;;4.33;2.50;;;;;;;;;;5103968;28;20454;-68
2020/12/30 12:59:29;;;;;;;7.00;3.30;;;;;;;;;;5105138;27;20446;-70
2020/12/30 13:01:56;;;;;;;5.67;2.67;;;;;;;;;;5106189;28;21085;-70
2020/12/30 13:04:23;;;;;;;6.20;3.30;;;;;;;;;;5099807;28;20832;-71
2020/12/30 13:06:50;;;;;;;3.53;2.80;;;;;;;;;;5108509;28;21042;-71
2020/12/30 13:09:17;;;;;;;8.60;3.57;;;;;;;;;;5108072;27;20497;-71
2020/12/30 13:11:45;;;;;;;4.57;2.77;;;;;;;;;;5111717;27;20988;-71
2020/12/30 13:14:11;;;;;;;4.60;2.87;;;;;;;;;;5113678;27;20477;-70
2020/12/30 13:16:38;;;;;;;3.77;3.20;;;;;;;;;;5113833;28;20486;-70
2020/12/30 13:19:05;;;;;;;8.60;3.73;;;;;;;;;;5111760;28;20466;-71
2020/12/30 13:21:36;;;;;;;4.77;3.87;;;;;;;;;;5115150;28;20553;-70
2020/12/30 13:24:03;;;;;;;9.10;3.70;;;;;;;;;;5125839;27;20447;-70
2020/12/30 13:26:29;;;;;;;5.80;4.07;;;;;;;;;;5119024;28;20540;-70
2020/12/30 13:28:56;;;;;;;4.47;3.23;;;;;;;;;;5121686;28;20490;-70
2020/12/30 13:31:22;;;;;;;6.10;3.97;;;;;;;;;;5118204;27;20469;-71
2020/12/30 13:33:49;;;;;;;5.70;3.20;;;;;;;;;;5117524;28;20453;-70
2020/12/30 13:36:19;;;;;;;4.77;3.70;;;;;;;;;;5116102;27;21277;-71
2020/12/30 13:38:46;;;;;;;7.80;3.63;;;;;;;;;;5109125;28;20451;-70
2020/12/30 13:41:13;;;;;;;4.80;3.80;;;;;;;;;;5097866;28;20452;-69
2020/12/30 13:43:39;;;;;;;7.20;4.40;;;;;;;;;;5101564;28;20448;-70
2020/12/30 13:46:09;;;;;;;10.03;4.80;;;;;;;;;;5098424;28;20485;-70
2020/12/30 13:48:35;;;;;;;7.00;4.20;;;;;;;;;;5096975;28;20471;-70
2020/12/30 13:51:02;;;;;;;7.07;4.33;;;;;;;;;;5110498;28;20443;-70
2020/12/30 13:53:28;;;;;;;6.30;4.93;;;;;;;;;;5105142;28;20461;-70
2020/12/30 13:55:56;;;;;;;6.40;4.43;;;;;;;;;;5108395;28;20469;-70
2020/12/30 13:58:23;;;;;;;6.03;4.20;;;;;;;;;;5097038;27;20436;-70
2020/12/30 14:00:49;;;;;;;7.20;4.70;;;;;;;;;;5101504;28;20459;-70
2020/12/30 14:03:16;;;;;;;5.40;4.90;;;;;;;;;;5097239;28;20527;-71
2020/12/30 14:05:42;;;;;;;6.50;4.20;;;;;;;;;;5095058;28;20475;-70
2020/12/30 14:08:09;;;;;;;6.07;4.57;;;;;;;;;;5100810;28;20478;-71
2020/12/30 14:10:36;;;;;;;9.20;4.90;;;;;;;;;;5099765;28;20454;-70
2020/12/30 14:13:04;;;;;;;5.00;4.30;;;;;;;;;;5104343;28;20497;-70
2020/12/30 14:15:30;;;;;;;5.87;4.10;;;;;;;;;;5098249;28;20479;-71
2020/12/30 14:17:57;;;;;;;9.13;5.87;;;;;;;;;;5108037;28;20447;-70
2020/12/30 14:20:23;;;;;;;9.57;4.63;;;;;;;;;;5100558;28;20992;-70
2020/12/30 14:22:50;;;;;;;8.20;5.10;;;;;;;;;;5099469;28;20468;-70
2020/12/30 14:25:17;;;;;;;9.23;4.60;;;;;;;;;;5098528;28;20459;-70
2020/12/30 14:27:43;;;;;;;8.90;5.03;;;;;;;;;;5095582;27;20470;-70
2020/12/30 14:30:11;;;;;;;6.50;4.93;;;;;;;;;;5105038;28;20443;-70
2020/12/30 14:32:37;;;;;;;8.53;5.10;;;;;;;;;;5098505;28;20479;-70
2020/12/30 14:35:04;;;;;;;8.23;5.20;;;;;;;;;;5105915;28;20443;-70
2020/12/30 14:37:31;;;;;;;9.90;5.00;;;;;;;;;;5101733;28;20454;-70
2020/12/30 14:39:57;;;;;;;5.47;4.70;;;;;;;;;;5102472;28;20444;-70
2020/12/30 14:42:24;;;;;;;9.67;5.30;;;;;;;;;;5104497;28;20471;-70
2020/12/30 14:44:50;;;;;;;6.30;5.17;;;;;;;;;;5099679;28;20444;-70
2020/12/30 14:47:18;;;;;;;7.00;4.77;;;;;;;;;;5095053;28;20473;-69
2020/12/30 14:49:45;;;;;;;7.37;4.63;;;;;;;;;;5096318;28;20479;-69
2020/12/30 14:52:11;;;;;;;6.00;4.97;;;;;;;;;;5099867;27;20490;-69
2020/12/30 14:54:38;;;;;;;8.60;5.43;;;;;;;;;;5097675;28;20997;-69
2020/12/30 14:57:04;;;;;;;7.43;4.57;;;;;;;;;;5098658;28;20474;-71
2020/12/30 14:59:31;;;;;;;7.03;5.27;;;;;;;;;;5094016;28;20462;-70
2020/12/30 15:01:58;;;;;;;8.87;6.07;;;;;;;;;;5100560;28;20520;-71
2020/12/30 15:04:25;;;;;;;7.73;5.77;;;;;;;;;;5096597;27;20589;-71
2020/12/30 15:06:52;;;;;;;7.17;6.00;;;;;;;;;;5102874;28;20463;-70
2020/12/30 15:09:19;;;;;;;7.60;6.70;;;;;;;;;;5091214;28;20479;-71
2020/12/30 15:11:46;;;;;;;6.93;6.17;;;;;;;;;;5097887;27;20456;-70
2020/12/30 15:14:12;;;;;;;10.20;6.57;;;;;;;;;;5098713;28;21140;-70
2020/12/30 15:16:39;;;;;;;9.07;7.23;;;;;;;;;;5098175;28;20478;-71
2020/12/30 15:19:06;;;;;;;8.67;6.10;;;;;;;;;;5093867;28;20491;-71
2020/12/30 15:21:33;;;;;;;12.97;7.80;;;;;;;;;;5094787;28;20455;-70
2020/12/30 15:24:00;;;;;;;8.10;6.70;;;;;;;;;;5102607;28;20442;-70
2020/12/30 15:26:26;;;;;;;9.63;6.93;;;;;;;;;;5094262;28;20463;-70
2020/12/30 15:28:53;;;;;;;7.70;6.20;;;;;;;;;;5100550;28;21091;-71
2020/12/30 15:31:19;;;;;;;7.00;6.07;;;;;;;;;;5096903;28;20536;-70
2020/12/30 15:33:46;;;;;;;10.23;7.50;;;;;;;;;;5097887;27;20467;-69
2020/12/30 15:36:13;;;;;;;8.60;6.67;;;;;;;;;;5100231;28;20483;-70
2020/12/30 15:38:40;;;;;;;9.90;7.17;;;;;;;;;;5095018;28;20455;-70
2020/12/30 15:41:07;;;;;;;11.20;7.23;;;;;;;;;;5098643;28;20463;-71
2020/12/30 15:43:33;;;;;;;9.27;7.27;;;;;;;;;;5093554;28;20440;-70
2020/12/30 15:46:00;;;;;;;9.30;7.57;;;;;;;;;;5102796;28;20459;-70
2020/12/30 15:48:27;;;;;;;13.30;9.00;;;;;;;;;;5103063;28;20512;-70
2020/12/30 15:50:53;;;;;;;8.63;7.33;;;;;;;;;;5099989;28;20449;-69
2020/12/30 15:53:20;;;;;;;9.77;7.60;;;;;;;;;;5101911;28;20455;-70
2020/12/30 15:55:47;;;;;;;9.50;7.53;;;;;;;;;;5100652;28;20952;-70
2020/12/30 15:58:14;;;;;;;9.20;6.60;;;;;;;;;;5103047;28;20447;-70
2020/12/30 16:00:41;;;;;;;8.67;7.67;;;;;;;;;;5100682;28;20844;-70
2020/12/30 16:03:07;;;;;;;8.83;6.73;;;;;;;;;;5101622;28;20448;-70
2020/12/30 16:05:34;;;;;;;9.03;6.77;;;;;;;;;;5093618;27;20497;-71
2020/12/30 16:08:00;;;;;;;9.13;7.03;;;;;;;;;;5102946;28;20447;-71
2020/12/30 16:10:27;;;;;;;9.57;7.73;;;;;;;;;;5096513;28;20473;-71
2020/12/30 16:12:55;;;;;;;8.40;6.90;;;;;;;;;;5099237;28;20452;-70
2020/12/30 16:15:22;;;;;;;9.67;8.20;;;;;;;;;;5094989;28;21282;-71
2020/12/30 16:17:49;;;;;;;8.07;7.23;;;;;;;;;;5095385;28;20828;-71
2020/12/30 16:20:17;;;;;;;12.00;7.80;;;;;;;;;;5099388;28;20455;-71
2020/12/30 16:22:44;;;;;;;11.43;7.67;;;;;;;;;;5106568;28;20459;-71
2020/12/30 16:25:10;;;;;;;9.07;7.83;;;;;;;;;;5108685;28;20825;-71
2020/12/30 16:27:37;;;;;;;11.30;7.77;;;;;;;;;;5100536;28;20447;-71
2020/12/30 16:30:04;;;;;;;10.00;7.60;;;;;;;;;;5099212;28;20501;-71
2020/12/30 16:32:31;;;;;;;7.93;7.13;;;;;;;;;;5100306;28;20511;-71
2020/12/30 16:34:59;;;;;;;9.10;7.77;;;;;;;;;;5114167;28;20443;-71
2020/12/30 16:37:25;;;;;;;10.87;8.70;;;;;;;;;;5109162;28;20486;-71
2020/12/30 16:39:52;;;;;;;9.10;8.20;;;;;;;;;;5105193;28;20508;-71
2020/12/30 16:42:18;;;;;;;12.70;8.67;;;;;;;;;;5097323;27;20500;-71
2020/12/30 16:44:45;;;;;;;14.47;10.80;;;;;;;;;;5101798;28;20483;-71
2020/12/30 16:47:12;;;;;;;12.30;9.20;;;;;;;;;;5102473;28;20486;-71
2020/12/30 16:49:39;;;;;;;10.80;8.63;;;;;;;;;;5103516;28;20483;-71
2020/12/30 16:52:06;;;;;;;10.27;8.63;;;;;;;;;;5100359;28;20455;-71
2020/12/30 16:54:32;;;;;;;16.93;9.17;;;;;;;;;;5104545;28;20451;-71
2020/12/30 16:56:59;;;;;;;13.80;9.33;;;;;;;;;;5101440;28;20482;-71
2020/12/30 16:59:25;;;;;;;11.93;9.60;;;;;;;;;;5109816;28;20448;-71
2020/12/30 17:01:52;;;;;;;10.00;8.77;;;;;;;;;;5106911;28;20440;-71
2020/12/30 17:04:20;;;;;;;12.90;9.00;;;;;;;;;;5105497;28;20444;-71
2020/12/30 17:06:53;;;;;;;11.60;9.47;;;;;;;;;;5102027;28;20481;-71
2020/12/30 17:09:20;;;;;;;12.10;9.77;;;;;;;;;;5105097;28;20994;-70
2020/12/30 17:11:53;;;;;;;13.17;9.60;;;;;;;;;;5109101;28;20908;-70
2020/12/30 17:14:19;;;;;;;13.50;10.97;;;;;;;;;;5106819;28;20555;-71
2020/12/30 17:16:50;;;;;;;13.50;9.97;;;;;;;;;;5107555;28;20946;-71
2020/12/30 17:19:16;;;;;;;15.43;11.30;;;;;;;;;;5107841;27;20451;-71
2020/12/30 17:21:49;;;;;;;16.00;12.77;;;;;;;;;;5106269;28;20824;-70
2020/12/30 17:24:16;;;;;;;13.97;11.60;;;;;;;;;;5110666;28;20553;-69
2020/12/30 17:26:43;;;;;;;15.23;12.07;;;;;;;;;;5102563;28;20551;-70
2020/12/30 17:29:09;;;;;;;11.57;10.37;;;;;;;;;;5099656;28;20486;-71
2020/12/30 17:31:36;;;;;;;11.47;9.00;;;;;;;;;;5100915;28;20518;-71
2020/12/30 17:34:02;;;;;;;11.63;9.60;;;;;;;;;;5104007;28;20869;-70
2020/12/30 17:36:29;;;;;;;13.73;11.50;;;;;;;;;;5104977;27;20462;-70
2020/12/30 17:38:56;;;;;;;11.23;10.03;;;;;;;;;;5110691;28;20454;-70
2020/12/30 17:41:23;;;;;;;13.80;10.20;;;;;;;;;;5109831;28;20451;-70
2020/12/30 17:43:50;;;;;;;11.50;9.67;;;;;;;;;;5099948;28;20487;-70
2020/12/30 17:46:16;;;;;;;16.33;11.90;;;;;;;;;;5106955;28;20467;-69
2020/12/30 17:48:43;;;;;;;12.80;10.53;;;;;;;;;;5101960;28;20483;-69
2020/12/30 17:51:09;;;;;;;18.80;10.90;;;;;;;;;;5110287;28;20451;-70
2020/12/30 17:53:36;;;;;;;12.30;10.20;;;;;;;;;;5108648;28;20444;-71
2020/12/30 17:56:07;;;;;;;12.83;9.90;;;;;;;;;;5102081;28;20542;-71
2020/12/30 17:58:34;;;;;;;12.87;10.27;;;;;;;;;;5108971;28;20967;-71
2020/12/30 18:01:01;;;;;;;14.20;10.00;;;;;;;;;;5097838;28;20460;-71
2020/12/30 18:03:28;;;;;;;11.97;10.73;;;;;;;;;;5102836;28;20538;-70
2020/12/30 18:05:54;;;;;;;15.47;10.40;;;;;;;;;;5107468;28;20482;-72
2020/12/30 18:08:21;;;;;;;17.80;11.20;;;;;;;;;;5106684;28;20887;-71
2020/12/30 18:10:48;;;;;;;14.50;11.83;;;;;;;;;;5099903;28;20452;-70
2020/12/30 18:13:15;;;;;;;11.77;9.90;;;;;;;;;;5109671;28;20456;-70
2020/12/30 18:15:42;;;;;;;15.20;10.20;;;;;;;;;;5100695;28;21010;-70
2020/12/30 18:18:08;;;;;;;15.60;12.43;;;;;;;;;;5102522;28;20476;-71
2020/12/30 18:20:35;;;;;;;15.33;12.03;;;;;;;;;;5098460;28;20451;-71
2020/12/30 18:23:02;;;;;;;14.33;11.57;;;;;;;;;;5110356;27;20443;-69
2020/12/30 18:25:28;;;;;;;14.93;12.20;;;;;;;;;;5101318;28;20467;-69
2020/12/30 18:27:55;;;;;;;17.90;13.00;;;;;;;;;;5112753;27;20474;-69
2020/12/30 18:30:22;;;;;;;18.87;11.50;;;;;;;;;;5103592;28;20563;-69
2020/12/30 18:32:49;;;;;;;18.70;12.17;;;;;;;;;;5105778;28;20455;-70
2020/12/30 18:35:16;;;;;;;13.00;11.00;;;;;;;;;;5100386;28;20463;-71
2020/12/30 18:37:42;;;;;;;14.23;9.93;;;;;;;;;;5109236;27;20505;-70
2020/12/30 18:40:10;;;;;;;14.60;11.63;;;;;;;;;;5107915;28;20447;-71
2020/12/30 18:42:37;;;;;;;11.63;10.20;;;;;;;;;;5102117;28;20454;-72
2020/12/30 18:45:04;;;;;;;11.23;9.80;;;;;;;;;;5092068;28;20443;-71
2020/12/30 18:47:32;;;;;;;14.07;10.70;;;;;;;;;;5098371;27;20444;-71
2020/12/30 18:49:58;;;;;;;13.00;9.90;;;;;;;;;;5104166;28;20485;-71
2020/12/30 18:52:25;;;;;;;15.33;11.80;;;;;;;;;;5100197;28;20451;-71
2020/12/30 18:54:51;;;;;;;13.33;9.97;;;;;;;;;;5098771;28;20448;-71
2020/12/30 18:57:18;;;;;;;13.07;10.20;;;;;;;;;;5102057;28;20459;-71
2020/12/30 18:59:45;;;;;;;13.60;10.73;;;;;;;;;;5102959;28;20452;-71
2020/12/30 19:02:11;;;;;;;13.40;10.57;;;;;;;;;;5094476;28;20452;-71
2020/12/30 19:04:39;;;;;;;16.70;11.50;;;;;;;;;;5097224;28;20881;-71
2020/12/30 19:07:05;;;;;;;14.43;11.07;;;;;;;;;;5092990;27;20487;-71
2020/12/30 19:09:32;;;;;;;14.00;10.90;;;;;;;;;;5092245;27;20498;-71
2020/12/30 19:11:59;;;;;;;12.77;11.00;;;;;;;;;;5095546;28;20454;-71
2020/12/30 19:14:25;;;;;;;15.20;11.40;;;;;;;;;;5093043;28;20535;-71
2020/12/30 19:16:55;;;;;;;16.10;11.20;;;;;;;;;;5098537;28;20468;-71
2020/12/30 19:19:22;;;;;;;13.40;9.80;;;;;;;;;;5096751;28;20475;-71
2020/12/30 19:21:51;;;;;;;13.90;10.73;;;;;;;;;;5093926;28;20460;-71
2020/12/30 19:24:18;;;;;;;15.13;11.70;;;;;;;;;;5092022;28;21181;-71
2020/12/30 19:26:47;;;;;;;15.90;13.03;;;;;;;;;;5090602;28;20472;-72
2020/12/30 19:29:14;;;;;;;15.13;11.97;;;;;;;;;;5096745;28;20490;-71
2020/12/30 19:31:41;;;;;;;15.33;11.53;;;;;;;;;;5102015;28;20447;-71
2020/12/30 19:34:07;;;;;;;18.00;11.70;;;;;;;;;;5100446;27;20459;-71
2020/12/30 19:36:34;;;;;;;15.10;12.47;;;;;;;;;;5098728;27;20518;-71
2020/12/30 19:39:02;;;;;;;20.13;13.77;;;;;;;;;;5099268;28;20439;-71
2020/12/30 19:41:29;;;;;;;15.53;12.00;;;;;;;;;;5097212;28;20450;-71
2020/12/30 19:43:56;;;;;;;17.50;12.60;;;;;;;;;;5094518;28;20463;-71
2020/12/30 19:46:23;;;;;;;15.73;13.07;;;;;;;;;;5098405;28;22214;-71
2020/12/30 19:48:50;;;;;;;16.53;11.40;;;;;;;;;;5095057;28;20479;-71
2020/12/30 19:51:16;;;;;;;16.33;12.27;;;;;;;;;;5097883;28;20455;-71
2020/12/30 19:53:43;;;;;;;12.00;9.97;;;;;;;;;;5093260;28;20452;-71
2020/12/30 19:56:12;;;;;;;16.77;12.20;;;;;;;;;;5090435;28;20474;-71
2020/12/30 19:58:39;;;;;;;17.00;13.67;;;;;;;;;;5092557;28;20444;-71
2020/12/30 20:01:05;;;;;;;16.73;13.00;;;;;;;;;;5092196;28;20444;-71
2020/12/30 20:03:32;;;;;;;20.00;14.20;;;;;;;;;;5095603;28;20820;-71
2020/12/30 20:05:59;;;;;;;15.27;11.83;;;;;;;;;;5090359;28;20468;-71
2020/12/30 20:08:25;;;;;;;15.47;11.83;;;;;;;;;;5094908;28;20455;-71
2020/12/30 20:10:52;;;;;;;19.40;13.80;;;;;;;;;;5094607;28;20455;-71
2020/12/30 20:13:19;;;;;;;20.90;13.27;;;;;;;;;;5091843;28;20862;-72
2020/12/30 20:15:46;;;;;;;15.77;11.57;;;;;;;;;;5095237;28;20491;-71
2020/12/30 20:18:12;;;;;;;16.60;13.83;;;;;;;;;;5095929;27;20896;-71
2020/12/30 20:20:39;;;;;;;16.43;13.30;;;;;;;;;;5093476;28;20440;-71
2020/12/30 20:23:05;;;;;;;19.87;14.53;;;;;;;;;;5093123;28;20774;-71
2020/12/30 20:25:32;;;;;;;15.00;12.90;;;;;;;;;;5095751;28;20519;-71
2020/12/30 20:27:59;;;;;;;17.00;13.43;;;;;;;;;;5088130;28;20466;-71
2020/12/30 20:30:26;;;;;;;14.80;12.00;;;;;;;;;;5090068;28;20490;-71
2020/12/30 20:32:53;;;;;;;19.83;11.93;;;;;;;;;;5092351;28;21003;-71
2020/12/30 20:35:20;;;;;;;18.43;13.47;;;;;;;;;;5094708;28;20459;-71
2020/12/30 20:37:47;;;;;;;18.43;13.87;;;;;;;;;;5098995;28;20468;-71
2020/12/30 20:40:15;;;;;;;17.53;13.27;;;;;;;;;;5093446;28;20854;-71
2020/12/30 20:42:42;;;;;;;17.10;13.23;;;;;;;;;;5096569;28;20485;-71
2020/12/30 20:45:09;;;;;;;18.87;13.93;;;;;;;;;;5091912;28;21263;-71
2020/12/30 20:47:36;;;;;;;16.77;12.60;;;;;;;;;;5090048;28;20453;-71
2020/12/30 20:50:03;;;;;;;15.37;12.80;;;;;;;;;;5090908;28;20979;-71
2020/12/30 20:52:30;;;;;;;16.80;13.33;;;;;;;;;;5102887;27;20460;-71
2020/12/30 20:54:56;;;;;;;18.07;12.40;;;;;;;;;;5103343;28;21064;-71
2020/12/30 20:57:23;;;;;;;14.70;13.00;;;;;;;;;;5098468;28;20467;-71
2020/12/30 20:59:50;;;;;;;18.40;13.93;;;;;;;;;;5096060;28;20906;-71
2020/12/30 21:02:16;;;;;;;17.13;14.20;;;;;;;;;;5094893;28;20455;-71
2020/12/30 21:04:44;;;;;;;18.60;13.80;;;;;;;;;;5099944;28;20483;-71
2020/12/30 21:07:10;;;;;;;21.70;13.63;;;;;;;;;;5099027;28;20483;-71
2020/12/30 21:09:41;;;;;;;20.07;14.30;;;;;;;;;;5092907;28;20483;-71
2020/12/30 21:12:08;;;;;;;18.93;13.60;;;;;;;;;;5096533;28;20462;-71
2020/12/30 21:14:34;;;;;;;21.57;14.63;;;;;;;;;;5102159;27;20458;-71
2020/12/30 21:17:01;;;;;;;22.90;14.17;;;;;;;;;;5099200;28;20476;-71
2020/12/30 21:19:27;;;;;;;22.57;15.20;;;;;;;;;;5099966;28;20508;-71
2020/12/30 21:21:55;;;;;;;20.90;15.97;;;;;;;;;;5109437;28;20472;-71
2020/12/30 21:24:21;;;;;;;19.93;15.47;;;;;;;;;;5102102;28;20822;-71
2020/12/30 21:26:48;;;;;;;19.67;14.30;;;;;;;;;;5101935;28;20462;-71
2020/12/30 21:29:15;;;;;;;17.83;13.73;;;;;;;;;;5101096;28;21233;-71
2020/12/30 21:31:41;;;;;;;17.80;14.50;;;;;;;;;;5099494;28;20455;-71
2020/12/30 21:34:08;;;;;;;19.43;13.83;;;;;;;;;;5095573;27;20448;-71
2020/12/30 21:36:35;;;;;;;19.80;14.60;;;;;;;;;;5095399;28;20467;-71
2020/12/30 21:39:02;;;;;;;19.47;13.37;;;;;;;;;;5103839;28;20495;-70
2020/12/30 21:41:29;;;;;;;15.57;12.43;;;;;;;;;;5100849;28;20531;-71
2020/12/30 21:43:56;;;;;;;20.10;13.17;;;;;;;;;;5092018;28;20555;-71
2020/12/30 21:46:23;;;;;;;20.37;13.10;;;;;;;;;;5098440;28;20605;-71
2020/12/30 21:48:49;;;;;;;17.63;12.90;;;;;;;;;;5100813;28;20480;-71
2020/12/30 21:51:17;;;;;;;16.10;12.77;;;;;;;;;;5106148;28;20454;-71
2020/12/30 21:53:44;;;;;;;17.20;13.37;;;;;;;;;;5098324;28;20512;-71
2020/12/30 21:56:12;;;;;;;19.10;13.77;;;;;;;;;;5091791;28;20472;-71
2020/12/30 21:58:38;;;;;;;23.93;15.10;;;;;;;;;;5094608;28;20460;-72
2020/12/30 22:01:06;;;;;;;17.97;14.10;;;;;;;;;;5104528;27;20447;-71
2020/12/30 22:03:33;;;;;;;20.17;15.87;;;;;;;;;;5102788;28;20991;-71
2020/12/30 22:05:59;;;;;;;22.67;14.50;;;;;;;;;;5095861;28;20479;-71
2020/12/30 22:08:26;;;;;;;21.80;15.83;;;;;;;;;;5104602;28;20466;-71
2020/12/30 22:10:52;;;;;;;18.63;14.20;;;;;;;;;;5102691;28;20487;-71
2020/12/30 22:13:20;;;;;;;21.70;14.33;;;;;;;;;;5101828;28;20460;-71
2020/12/30 22:15:46;;;;;;;24.53;14.90;;;;;;;;;;5101970;28;20470;-71
2020/12/30 22:18:13;;;;;;;18.33;13.17;;;;;;;;;;5094000;28;20455;-71
2020/12/30 22:20:42;;;;;;;16.33;12.13;;;;;;;;;;5093086;28;20460;-71
2020/12/30 22:23:08;;;;;;;21.13;14.00;;;;;;;;;;5100460;28;20439;-71
2020/12/30 22:25:35;;;;;;;22.97;13.57;;;;;;;;;;5101280;28;20475;-71
2020/12/30 22:28:01;;;;;;;18.50;13.90;;;;;;;;;;5090200;28;20472;-72
2020/12/30 22:30:29;;;;;;;16.70;14.33;;;;;;;;;;5094812;27;20541;-71
2020/12/30 22:32:55;;;;;;;17.67;13.67;;;;;;;;;;5100787;28;20451;-71
2020/12/30 22:35:22;;;;;;;20.17;15.27;;;;;;;;;;5101145;28;20451;-71
2020/12/30 22:37:49;;;;;;;20.07;14.00;;;;;;;;;;5104058;28;21072;-71
2020/12/30 22:40:15;;;;;;;18.17;14.37;;;;;;;;;;5101872;28;20447;-71
2020/12/30 22:42:42;;;;;;;18.80;14.77;;;;;;;;;;5106049;28;20963;-71
2020/12/30 22:45:08;;;;;;;19.17;14.50;;;;;;;;;;5102509;28;20477;-71
2020/12/30 22:47:36;;;;;;;19.30;13.80;;;;;;;;;;5103004;28;20454;-71
2020/12/30 22:50:02;;;;;;;21.30;15.50;;;;;;;;;;5095182;28;20487;-71
2020/12/30 22:52:29;;;;;;;21.10;15.27;;;;;;;;;;5099707;28;20446;-72
2020/12/30 22:54:56;;;;;;;18.40;14.63;;;;;;;;;;5093081;28;21042;-71
2020/12/30 22:57:22;;;;;;;17.60;13.20;;;;;;;;;;5091035;28;20476;-71
2020/12/30 22:59:50;;;;;;;21.27;14.83;;;;;;;;;;5098893;28;20552;-71
2020/12/30 23:02:17;;;;;;;18.30;14.10;;;;;;;;;;5092052;28;20444;-71
2020/12/30 23:04:44;;;;;;;17.53;13.17;;;;;;;;;;5100352;28;20450;-71
2020/12/30 23:07:11;;;;;;;19.50;13.23;;;;;;;;;;5096148;28;20474;-71
2020/12/30 23:09:37;;;;;;;18.53;12.77;;;;;;;;;;5104151;28;20479;-71
2020/12/30 23:12:04;;;;;;;17.73;13.37;;;;;;;;;;5092378;28;20448;-72
2020/12/30 23:14:30;;;;;;;17.93;13.83;;;;;;;;;;5105309;28;20443;-72
2020/12/30 23:16:57;;;;;;;18.50;12.77;;;;;;;;;;5097529;28;20508;-71
2020/12/30 23:19:25;;;;;;;17.40;12.90;;;;;;;;;;5097430;28;20488;-71
2020/12/30 23:21:52;;;;;;;17.73;12.77;;;;;;;;;;5102115;28;21002;-71
2020/12/30 23:24:19;;;;;;;16.43;12.27;;;;;;;;;;5099972;28;20967;-71
2020/12/30 23:26:46;;;;;;;22.43;12.07;;;;;;;;;;5102689;28;20478;-71
2020/12/30 23:29:13;;;;;;;14.33;10.93;;;;;;;;;;5101208;28;20491;-71
2020/12/30 23:31:39;;;;;;;13.40;10.93;;;;;;;;;;5111649;28;20542;-72
2020/12/30 23:34:06;;;;;;;17.00;11.80;;;;;;;;;;5096080;28;20439;-71
2020/12/30 23:36:33;;;;;;;16.17;11.67;;;;;;;;;;5105832;28;20479;-72
2020/12/30 23:39:00;;;;;;;15.30;11.47;;;;;;;;;;5094962;28;20829;-72
2020/12/30 23:41:27;;;;;;;13.60;10.73;;;;;;;;;;5101279;28;20444;-72
2020/12/30 23:43:59;;;;;;;15.70;11.27;;;;;;;;;;5091595;28;20467;-71
2020/12/30 23:46:25;;;;;;;15.33;10.87;;;;;;;;;;5107124;28;20565;-71
2020/12/30 23:48:52;;;;;;;18.93;11.50;;;;;;;;;;5104151;28;20460;-71
2020/12/30 23:51:18;;;;;;;13.30;10.27;;;;;;;;;;5102244;28;20446;-71
2020/12/30 23:53:45;;;;;;;14.80;11.33;;;;;;;;;;5093107;28;20456;-71
2020/12/30 23:56:13;;;;;;;15.10;10.33;;;;;;;;;;5107851;28;20471;-71
2020/12/30 23:58:39;;;;;;;12.73;9.63;;;;;;;;;;5102653;28;20806;-71
